• Join FlightAware (Why Join?)
  • Login
  • US Flag 
12:57AM EDT


 

Airport Tracker/Info


-or-


 

Live Flight TrackerFlight Track Log ✈ SKW2975 ✈ 15-May-2013 ✈ KELP - KPHX

Flight Track Log - Related Links

Times and Time Zones

All times are in EDT time to prevent confusion due to time zone crossing. See the SKW2975 flight status page for this flight to view local times or setup timezone preferences in your user account.

Time Position Orientation Groundspeed Altitude Reporting Facility
EDT Latitude Longitude Course Direction KTS MPH feet Rate Location/Type
10:33AM 31.8203 -106.6069 289° West 309 356 10,300  Level Albuquerque Center
10:34AM 31.8453 -106.6928 289° West 282 325 12,500 2,040 Climbing Albuquerque Center
10:35AM 31.8622 -106.7861 282° West 290 334 14,600 1,680 Climbing Albuquerque Center
10:36AM 31.8833 -106.9081 282° West 320 368 16,000 1,440 Climbing Albuquerque Center
10:37AM 31.9011 -107.0158 281° West 334 384 17,600 1,200 Climbing Albuquerque Center
10:38AM 31.9206 -107.1261 282° West 339 390 18,500 1,200 Climbing Albuquerque Center
10:39AM 31.9394 -107.2364 281° West 343 395 20,100 1,380 Climbing Albuquerque Center
10:40AM 31.9581 -107.3467 281° West 342 394 21,400 1,140 Climbing Albuquerque Center
10:41AM 31.9772 -107.4608 281° West 350 403 22,500 960 Climbing Albuquerque Center
10:42AM 31.9972 -107.5772 281° West 358 412 23,500 960 Climbing Albuquerque Center
10:43AM 32.0161 -107.6972 281° West 364 419 24,500 960 Climbing Albuquerque Center
10:44AM 32.0414 -107.8436 282° West 374 430 25,600 960 Climbing Albuquerque Center
10:45AM 32.0619 -107.9661 281° West 380 437 26,500 780 Climbing Albuquerque Center
10:46AM 32.0822 -108.0900 281° West 382 440 27,200 600 Climbing Albuquerque Center
10:47AM 32.1019 -108.2119 281° West 390 449 27,800 360 Climbing Albuquerque Center
10:48AM 32.1222 -108.3386 281° West 395 455 28,000 60 Climbing Albuquerque Center
10:49AM 32.1475 -108.4892 281° West 394 453 28,000  Level Albuquerque Center
10:50AM 32.1675 -108.6158 281° West 394 453 28,000  Level Albuquerque Center
10:51AM 32.1875 -108.7414 281° West 393 452 28,000  Level Albuquerque Center
10:52AM 32.2064 -108.8683 280° West 394 453 28,000  Level Albuquerque Center
10:53AM 32.2281 -108.9983 281° West 401 461 28,000  Level Albuquerque Center
10:54AM 32.2475 -109.1283 280° West 403 464 28,000  Level Albuquerque Center
10:55AM 32.2739 -109.2867 281° West 409 471 28,000  Level Albuquerque Center
10:56AM 32.3050 -109.4150 286° West 409 471 28,000  Level Albuquerque Center
10:57AM 32.3367 -109.5444 286° West 411 473 28,000 -300 Level Albuquerque Center
10:58AM 32.3678 -109.6733 286° West 411 473 27,500 -600 Descending Albuquerque Center
10:59AM 32.3978 -109.8006 286° West 407 468 26,800 -780 Descending Albuquerque Center
11:00AM 32.4375 -109.9558 287° West 412 474 26,000 -780 Descending Albuquerque Center
11:01AM 32.4675 -110.0808 286° West 401 461 25,300 -720 Descending Albuquerque Center
11:03AM 32.4969 -110.2042 286° West 395 455 24,600 -660 Descending Albuquerque Center
11:04AM 32.5264 -110.3256 286° West 391 450 24,000 -300 Descending Albuquerque Center
11:05AM 32.5544 -110.4453 286° West 385 443 24,000  Level Albuquerque Center
11:06AM 32.5881 -110.5903 285° West 381 438 24,000 -60 Level Albuquerque Center
11:07AM 32.6458 -110.6961 303° West 383 441 23,900 -660 Descending Albuquerque Center
11:08AM 32.7025 -110.8008 303° West 379 436 22,700 -1,320 Descending Albuquerque Center
11:09AM 32.7583 -110.9044 303° West 375 432 21,200 -1,740 Descending Albuquerque Center
11:10AM 32.8103 -111.0008 303° West 355 409 19,200 -1,980 Descending Albuquerque Center
11:11AM 32.8594 -111.0983 301° West 345 397 17,200 -1,980 Descending Albuquerque Center
11:12AM 32.9158 -111.2150 300° West 339 390 15,200 -1,680 Descending Albuquerque Center
11:13AM 32.9569 -111.3036 299° West 310 357 13,700 -1,440 Descending Albuquerque Center
11:14AM 32.9961 -111.3878 299° West 292 336 12,200 -1,320 Descending Albuquerque Center
11:15AM 33.0372 -111.4689 301° West 286 329 11,000 -1,080 Descending Albuquerque Center
11:16AM 33.0778 -111.5489 301° West 282 325 10,000 -540 Descending Albuquerque Center
11:17AM 33.1181 -111.6272 302° West 277 319 10,000  Level Albuquerque Center
11:18AM 33.1544 -111.7014 300° West 261 300 10,000  Level Albuquerque Center
11:19AM 33.1967 -111.7850 301° West 247 284 10,000  Level Albuquerque Center
11:20AM 33.2308 -111.8517 302° West 237 273 10,000 -300 Level Albuquerque Center
11:21AM 33.2644 -111.9181 301° West 233 268 9,500 -600 Descending Albuquerque Center
11:22AM 33.2975 -111.9850 301° West 233 268 8,800 -840 Descending Albuquerque Center
11:23AM 33.3306 -112.0511 301° West 232 267 7,800 -900 Descending Albuquerque Center
11:24AM 33.3436 -112.1222 282° West 221 254 7,000 -780 Descending Albuquerque Center
11:25AM 33.3428 -112.2014 269° West 198 228 6,300 -840 Descending Albuquerque Center
11:26AM 33.3833 -112.2225 337° Northwest 195 224 5,300 -840 Descending Albuquerque Center
11:27AM 33.4153 -112.1767 50° Northeast 190 219 4,600 -1,020 Descending Albuquerque Center
11:28AM 33.4283 -112.1236 74° East 170 196 3,200 -1,260 Descending Albuquerque Center
11:29AM 33.4286 -112.0758 90° East 147 169 2,000 -960 Descending Albuquerque Center
11:30AM 33.4292 -112.0283 89° East 144 166 1,300 -720 Descending Albuquerque Center